sensor_id;sensor_type;location;lat;lon;timestamp;pressure;altitude;pressure_sealevel;temperature;humidity
29569;BME280;16501;51.462;14.346;2023-04-04T00:01:58;101404.09;;;1.36;78.91
29569;BME280;16501;51.462;14.346;2023-04-04T00:04:26;101399.28;;;1.29;79.10
29569;BME280;16501;51.462;14.346;2023-04-04T00:06:53;101396.88;;;1.24;79.47
29569;BME280;16501;51.462;14.346;2023-04-04T00:09:19;101382.25;;;1.20;79.20
29569;BME280;16501;51.462;14.346;2023-04-04T00:11:45;101380.56;;;1.12;79.32
29569;BME280;16501;51.462;14.346;2023-04-04T00:14:11;101425.00;;;1.37;79.46
29569;BME280;16501;51.462;14.346;2023-04-04T00:16:36;101400.72;;;1.16;79.68
29569;BME280;16501;51.462;14.346;2023-04-04T00:19:02;101400.34;;;1.18;80.19
29569;BME280;16501;51.462;14.346;2023-04-04T00:21:28;101381.81;;;1.18;80.05
29569;BME280;16501;51.462;14.346;2023-04-04T00:23:57;101392.13;;;1.25;80.22
29569;BME280;16501;51.462;14.346;2023-04-04T00:26:23;101400.44;;;1.28;79.94
29569;BME280;16501;51.462;14.346;2023-04-04T00:28:50;101350.72;;;0.84;79.63
29569;BME280;16501;51.462;14.346;2023-04-04T00:31:16;101379.50;;;1.24;79.11
29569;BME280;16501;51.462;14.346;2023-04-04T00:33:41;101395.28;;;1.23;79.71
29569;BME280;16501;51.462;14.346;2023-04-04T00:36:07;101405.56;;;1.26;79.48
29569;BME280;16501;51.462;14.346;2023-04-04T00:38:33;101352.47;;;1.03;80.05
29569;BME280;16501;51.462;14.346;2023-04-04T00:40:58;101379.94;;;1.29;79.94
29569;BME280;16501;51.462;14.346;2023-04-04T00:43:24;101372.38;;;1.23;80.08
29569;BME280;16501;51.462;14.346;2023-04-04T00:45:50;101388.63;;;1.31;80.61
29569;BME280;16501;51.462;14.346;2023-04-04T00:48:16;101378.63;;;1.16;80.50
29569;BME280;16501;51.462;14.346;2023-04-04T00:50:41;101348.78;;;0.88;79.88
29569;BME280;16501;51.462;14.346;2023-04-04T00:53:07;101363.41;;;0.92;80.78
29569;BME280;16501;51.462;14.346;2023-04-04T00:55:32;101378.53;;;1.05;81.36
29569;BME280;16501;51.462;14.346;2023-04-04T01:00:33;101224.50;;;-0.32;80.29
29569;BME280;16501;51.462;14.346;2023-04-04T01:03:03;101224.03;;;-0.04;80.23
29569;BME280;16501;51.462;14.346;2023-04-04T01:05:30;101304.94;;;0.08;80.60
29569;BME280;16501;51.462;14.346;2023-04-04T01:07:59;101404.25;;;1.13;81.09
29569;BME280;16501;51.462;14.346;2023-04-04T01:10:25;101299.03;;;0.43;80.97
29569;BME280;16501;51.462;14.346;2023-04-04T01:12:50;101276.44;;;0.30;80.84
29569;BME280;16501;51.462;14.346;2023-04-04T01:15:16;101275.09;;;0.54;80.51
29569;BME280;16501;51.462;14.346;2023-04-04T01:17:45;101136.41;;;-0.59;80.04
29569;BME280;16501;51.462;14.346;2023-04-04T01:20:13;101305.22;;;0.33;80.27
29569;BME280;16501;51.462;14.346;2023-04-04T01:22:48;101107.31;;;-0.86;79.87
29569;BME280;16501;51.462;14.346;2023-04-04T01:25:15;101263.16;;;0.43;80.27
29569;BME280;16501;51.462;14.346;2023-04-04T01:27:42;101223.91;;;0.20;80.58
29569;BME280;16501;51.462;14.346;2023-04-04T01:30:07;101210.09;;;-0.18;79.90
29569;BME280;16501;51.462;14.346;2023-04-04T01:32:43;101211.09;;;0.01;79.81
29569;BME280;16501;51.462;14.346;2023-04-04T01:38:17;101366.19;;;0.96;79.16
29569;BME280;16501;51.462;14.346;2023-04-04T01:41:05;101357.84;;;0.88;80.51
29569;BME280;16501;51.462;14.346;2023-04-04T01:43:30;101331.19;;;0.66;80.03
29569;BME280;16501;51.462;14.346;2023-04-04T01:45:58;101349.47;;;0.78;80.45
29569;BME280;16501;51.462;14.346;2023-04-04T01:48:23;101335.63;;;0.74;79.99
29569;BME280;16501;51.462;14.346;2023-04-04T01:50:48;101350.75;;;0.87;80.82
29569;BME280;16501;51.462;14.346;2023-04-04T01:53:14;101349.94;;;0.87;80.63
29569;BME280;16501;51.462;14.346;2023-04-04T01:55:39;101348.00;;;0.87;79.98
29569;BME280;16501;51.462;14.346;2023-04-04T01:58:04;101348.78;;;0.88;80.53
29569;BME280;16501;51.462;14.346;2023-04-04T02:00:29;101337.25;;;0.79;80.61
29569;BME280;16501;51.462;14.346;2023-04-04T02:02:55;101351.81;;;0.75;80.93
29569;BME280;16501;51.462;14.346;2023-04-04T02:05:20;101343.56;;;0.79;81.58
29569;BME280;16501;51.462;14.346;2023-04-04T02:07:47;101345.56;;;0.82;81.49
29569;BME280;16501;51.462;14.346;2023-04-04T02:10:14;101344.78;;;0.85;81.72
29569;BME280;16501;51.462;14.346;2023-04-04T02:12:40;101327.34;;;0.74;82.14
29569;BME280;16501;51.462;14.346;2023-04-04T02:15:06;101335.63;;;0.74;81.81
29569;BME280;16501;51.462;14.346;2023-04-04T02:17:31;101333.16;;;0.65;82.46
29569;BME280;16501;51.462;14.346;2023-04-04T02:19:56;101329.19;;;0.63;82.21
29569;BME280;16501;51.462;14.346;2023-04-04T02:22:22;101283.16;;;0.33;82.08
29569;BME280;16501;51.462;14.346;2023-04-04T02:24:47;101326.78;;;0.58;81.93
29569;BME280;16501;51.462;14.346;2023-04-04T02:27:15;101334.22;;;0.53;82.49
29569;BME280;16501;51.462;14.346;2023-04-04T02:29:40;101311.66;;;0.44;82.10
29569;BME280;16501;51.462;14.346;2023-04-04T02:32:06;101329.91;;;0.52;81.89
29569;BME280;16501;51.462;14.346;2023-04-04T02:34:31;101330.41;;;0.31;82.65
29569;BME280;16501;51.462;14.346;2023-04-04T02:36:56;101316.84;;;0.15;82.38
29569;BME280;16501;51.462;14.346;2023-04-04T02:39:22;101313.75;;;0.21;82.41
29569;BME280;16501;51.462;14.346;2023-04-04T02:41:47;101312.50;;;0.14;82.09
29569;BME280;16501;51.462;14.346;2023-04-04T02:44:12;101315.22;;;0.11;82.48
29569;BME280;16501;51.462;14.346;2023-04-04T02:46:37;101328.19;;;0.10;82.68
29569;BME280;16501;51.462;14.346;2023-04-04T02:49:03;101312.72;;;-0.02;83.06
29569;BME280;16501;51.462;14.346;2023-04-04T02:51:28;101319.50;;;0.08;83.17
29569;BME280;16501;51.462;14.346;2023-04-04T02:53:54;101317.91;;;0.04;82.90
29569;BME280;16501;51.462;14.346;2023-04-04T02:56:19;101335.97;;;0.01;83.83
29569;BME280;16501;51.462;14.346;2023-04-04T02:58:45;101306.53;;;-0.22;84.04
29569;BME280;16501;51.462;14.346;2023-04-04T03:01:10;101319.84;;;-0.27;84.76
29569;BME280;16501;51.462;14.346;2023-04-04T03:03:36;101322.28;;;-0.22;85.41
29569;BME280;16501;51.462;14.346;2023-04-04T03:06:01;101332.06;;;-0.25;86.16
29569;BME280;16501;51.462;14.346;2023-04-04T03:08:27;101320.00;;;-0.43;87.25
29569;BME280;16501;51.462;14.346;2023-04-04T03:10:52;101298.41;;;-0.68;87.60
29569;BME280;16501;51.462;14.346;2023-04-04T03:13:17;101326.03;;;-0.34;87.11
29569;BME280;16501;51.462;14.346;2023-04-04T03:15:43;101333.88;;;-0.36;86.98
29569;BME280;16501;51.462;14.346;2023-04-04T03:18:08;101306.50;;;-0.52;87.28
29569;BME280;16501;51.462;14.346;2023-04-04T03:20:34;101297.38;;;-0.56;86.80
29569;BME280;16501;51.462;14.346;2023-04-04T03:22:59;101307.25;;;-0.55;87.95
29569;BME280;16501;51.462;14.346;2023-04-04T03:25:24;101296.63;;;-0.80;88.15
29569;BME280;16501;51.462;14.346;2023-04-04T03:27:50;101334.78;;;-0.55;88.95
29569;BME280;16501;51.462;14.346;2023-04-04T03:30:15;101314.97;;;-0.64;88.46
29569;BME280;16501;51.462;14.346;2023-04-04T03:32:41;101337.22;;;-0.50;88.94
29569;BME280;16501;51.462;14.346;2023-04-04T03:35:07;101310.69;;;-0.62;88.01
29569;BME280;16501;51.462;14.346;2023-04-04T03:37:32;101317.28;;;-0.66;87.97
29569;BME280;16501;51.462;14.346;2023-04-04T03:39:58;101330.75;;;-0.61;88.55
29569;BME280;16501;51.462;14.346;2023-04-04T03:42:23;101316.50;;;-0.67;88.40
29569;BME280;16501;51.462;14.346;2023-04-04T03:44:48;101329.16;;;-0.62;88.07
29569;BME280;16501;51.462;14.346;2023-04-04T03:47:14;101316.91;;;-0.65;88.00
29569;BME280;16501;51.462;14.346;2023-04-04T03:49:39;101338.81;;;-0.49;87.94
29569;BME280;16501;51.462;14.346;2023-04-04T03:52:04;101345.19;;;-0.45;87.49
29569;BME280;16501;51.462;14.346;2023-04-04T03:54:30;101300.34;;;-0.68;87.51
29569;BME280;16501;51.462;14.346;2023-04-04T03:56:56;101322.16;;;-0.56;87.46
29569;BME280;16501;51.462;14.346;2023-04-04T03:59:21;101314.22;;;-0.61;86.84
29569;BME280;16501;51.462;14.346;2023-04-04T04:01:47;101332.44;;;-0.53;86.90
29569;BME280;16501;51.462;14.346;2023-04-04T04:04:13;101328.00;;;-0.61;86.82
29569;BME280;16501;51.462;14.346;2023-04-04T04:06:38;101331.56;;;-0.61;87.26
29569;BME280;16501;51.462;14.346;2023-04-04T04:09:03;101338.28;;;-0.58;87.52
29569;BME280;16501;51.462;14.346;2023-04-04T04:11:29;101341.72;;;-0.65;87.49
29569;BME280;16501;51.462;14.346;2023-04-04T04:13:54;101340.19;;;-0.62;87.83
29569;BME280;16501;51.462;14.346;2023-04-04T04:16:20;101324.97;;;-0.79;87.41
29569;BME280;16501;51.462;14.346;2023-04-04T04:18:46;101328.25;;;-0.70;87.81
29569;BME280;16501;51.462;14.346;2023-04-04T04:21:11;101329.44;;;-0.71;87.60
29569;BME280;16501;51.462;14.346;2023-04-04T04:23:37;101335.47;;;-0.62;87.28
29569;BME280;16501;51.462;14.346;2023-04-04T04:26:02;101315.59;;;-0.74;87.01
29569;BME280;16501;51.462;14.346;2023-04-04T04:28:27;101319.03;;;-0.81;86.97
29569;BME280;16501;51.462;14.346;2023-04-04T04:30:53;101328.13;;;-0.77;87.30
29569;BME280;16501;51.462;14.346;2023-04-04T04:33:18;101340.44;;;-0.71;87.07
29569;BME280;16501;51.462;14.346;2023-04-04T04:35:43;101322.94;;;-0.82;87.29
29569;BME280;16501;51.462;14.346;2023-04-04T04:38:09;101334.38;;;-0.80;86.95
29569;BME280;16501;51.462;14.346;2023-04-04T04:40:35;101321.69;;;-0.88;86.42
29569;BME280;16501;51.462;14.346;2023-04-04T04:43:00;101361.00;;;-0.65;86.94
29569;BME280;16501;51.462;14.346;2023-04-04T04:45:26;101348.66;;;-0.74;86.38
29569;BME280;16501;51.462;14.346;2023-04-04T04:47:51;101338.72;;;-0.79;86.62
29569;BME280;16501;51.462;14.346;2023-04-04T04:50:17;101328.56;;;-0.75;86.62
29569;BME280;16501;51.462;14.346;2023-04-04T04:52:43;101348.09;;;-0.61;86.30
29569;BME280;16501;51.462;14.346;2023-04-04T04:55:09;101344.75;;;-0.47;86.22
29569;BME280;16501;51.462;14.346;2023-04-04T04:57:35;101340.97;;;-0.35;85.55
29569;BME280;16501;51.462;14.346;2023-04-04T05:00:02;101356.97;;;-0.17;85.00
29569;BME280;16501;51.462;14.346;2023-04-04T05:02:28;101351.81;;;-0.23;83.80
29569;BME280;16501;51.462;14.346;2023-04-04T05:04:54;101333.78;;;-0.43;84.07
29569;BME280;16501;51.462;14.346;2023-04-04T05:07:19;101359.59;;;-0.28;84.19
29569;BME280;16501;51.462;14.346;2023-04-04T05:09:44;101347.25;;;-0.38;84.14
29569;BME280;16501;51.462;14.346;2023-04-04T05:12:10;101335.16;;;-0.30;84.57
29569;BME280;16501;51.462;14.346;2023-04-04T05:14:35;101333.56;;;-0.31;84.12
29569;BME280;16501;51.462;14.346;2023-04-04T05:17:01;101307.44;;;-0.41;84.07
29569;BME280;16501;51.462;14.346;2023-04-04T05:19:27;101360.69;;;-0.06;83.44
29569;BME280;16501;51.462;14.346;2023-04-04T05:21:52;101342.78;;;-0.20;83.43
29569;BME280;16501;51.462;14.346;2023-04-04T05:24:18;101370.91;;;-0.33;83.66
29569;BME280;16501;51.462;14.346;2023-04-04T05:26:43;101381.91;;;-0.10;83.84
29569;BME280;16501;51.462;14.346;2023-04-04T05:29:08;101355.78;;;-0.20;84.07
29569;BME280;16501;51.462;14.346;2023-04-04T05:31:34;101346.84;;;-0.10;83.82
29569;BME280;16501;51.462;14.346;2023-04-04T05:33:59;101372.59;;;0.02;82.61
29569;BME280;16501;51.462;14.346;2023-04-04T05:36:32;101370.25;;;0.00;82.78
29569;BME280;16501;51.462;14.346;2023-04-04T05:38:57;101383.75;;;0.09;82.76
29569;BME280;16501;51.462;14.346;2023-04-04T05:41:22;101383.34;;;0.10;83.15
29569;BME280;16501;51.462;14.346;2023-04-04T05:43:47;101365.22;;;0.09;83.70
29569;BME280;16501;51.462;14.346;2023-04-04T05:46:13;101381.47;;;0.14;82.34
29569;BME280;16501;51.462;14.346;2023-04-04T05:48:38;101377.41;;;0.08;83.02
29569;BME280;16501;51.462;14.346;2023-04-04T05:51:03;101371.81;;;0.01;82.89
29569;BME280;16501;51.462;14.346;2023-04-04T05:53:28;101393.81;;;0.28;83.46
29569;BME280;16501;51.462;14.346;2023-04-04T05:55:54;101376.25;;;0.09;82.20
29569;BME280;16501;51.462;14.346;2023-04-04T05:58:19;101376.53;;;0.01;82.26
29569;BME280;16501;51.462;14.346;2023-04-04T06:00:44;101336.66;;;-0.36;83.31
29569;BME280;16501;51.462;14.346;2023-04-04T06:03:10;101377.41;;;-0.22;84.88
29569;BME280;16501;51.462;14.346;2023-04-04T06:05:35;101375.47;;;-0.18;84.34
29569;BME280;16501;51.462;14.346;2023-04-04T06:08:00;101399.38;;;0.01;84.72
29569;BME280;16501;51.462;14.346;2023-04-04T06:10:26;101369.13;;;-0.22;83.20
29569;BME280;16501;51.462;14.346;2023-04-04T06:12:51;101388.63;;;-0.08;82.88
29569;BME280;16501;51.462;14.346;2023-04-04T06:15:16;101384.94;;;-0.19;84.21
29569;BME280;16501;51.462;14.346;2023-04-04T06:17:42;101389.00;;;-0.09;83.29
29569;BME280;16501;51.462;14.346;2023-04-04T06:20:07;101397.81;;;0.00;83.22
29569;BME280;16501;51.462;14.346;2023-04-04T06:22:33;101377.28;;;-0.03;83.78
29569;BME280;16501;51.462;14.346;2023-04-04T06:24:59;101379.75;;;0.06;83.78
29569;BME280;16501;51.462;14.346;2023-04-04T06:27:24;101394.09;;;0.19;84.09
29569;BME280;16501;51.462;14.346;2023-04-04T06:29:49;101373.91;;;0.11;82.27
29569;BME280;16501;51.462;14.346;2023-04-04T06:32:15;101367.44;;;0.27;83.53
29569;BME280;16501;51.462;14.346;2023-04-04T06:34:40;101377.88;;;0.44;83.44
29569;BME280;16501;51.462;14.346;2023-04-04T06:37:05;101384.38;;;0.63;81.41
29569;BME280;16501;51.462;14.346;2023-04-04T06:39:31;101368.34;;;0.72;79.51
29569;BME280;16501;51.462;14.346;2023-04-04T06:41:58;101397.41;;;0.96;79.51
29569;BME280;16501;51.462;14.346;2023-04-04T06:44:24;101374.41;;;0.88;77.69
29569;BME280;16501;51.462;14.346;2023-04-04T06:46:50;101374.06;;;0.93;75.69
29569;BME280;16501;51.462;14.346;2023-04-04T06:49:15;101369.78;;;0.96;75.75
29569;BME280;16501;51.462;14.346;2023-04-04T06:51:40;101332.19;;;0.84;75.17
29569;BME280;16501;51.462;14.346;2023-04-04T06:54:05;101371.19;;;1.20;73.87
29569;BME280;16501;51.462;14.346;2023-04-04T06:56:31;101382.28;;;1.27;72.61
29569;BME280;16501;51.462;14.346;2023-04-04T06:58:56;101371.22;;;1.24;70.91
29569;BME280;16501;51.462;14.346;2023-04-04T07:01:21;101374.44;;;1.33;71.10
29569;BME280;16501;51.462;14.346;2023-04-04T07:03:47;101383.56;;;1.41;68.82
29569;BME280;16501;51.462;14.346;2023-04-04T07:06:13;101388.38;;;1.47;69.17
29569;BME280;16501;51.462;14.346;2023-04-04T07:08:38;101367.88;;;1.52;69.12
29569;BME280;16501;51.462;14.346;2023-04-04T07:11:03;101351.97;;;1.35;67.28
29569;BME280;16501;51.462;14.346;2023-04-04T07:13:29;101375.81;;;1.57;68.60
29569;BME280;16501;51.462;14.346;2023-04-04T07:15:54;101346.88;;;1.44;67.45
29569;BME280;16501;51.462;14.346;2023-04-04T07:18:19;101379.91;;;1.78;65.90
29569;BME280;16501;51.462;14.346;2023-04-04T07:20:45;101370.44;;;1.82;66.90
29569;BME280;16501;51.462;14.346;2023-04-04T07:23:11;101345.06;;;1.62;67.17
29569;BME280;16501;51.462;14.346;2023-04-04T07:25:37;101360.91;;;1.69;66.81
29569;BME280;16501;51.462;14.346;2023-04-04T07:28:02;101335.59;;;1.70;65.07
29569;BME280;16501;51.462;14.346;2023-04-04T07:30:28;101371.31;;;1.90;65.04
29569;BME280;16501;51.462;14.346;2023-04-04T07:33:00;101389.97;;;2.04;61.71
29569;BME280;16501;51.462;14.346;2023-04-04T07:35:26;101362.16;;;1.86;60.43
29569;BME280;16501;51.462;14.346;2023-04-04T07:37:52;101368.94;;;1.92;61.08
29569;BME280;16501;51.462;14.346;2023-04-04T07:40:18;101352.19;;;1.70;61.23
29569;BME280;16501;51.462;14.346;2023-04-04T07:42:44;101368.16;;;1.92;61.59
29569;BME280;16501;51.462;14.346;2023-04-04T07:45:10;101355.50;;;1.91;59.57
29569;BME280;16501;51.462;14.346;2023-04-04T07:47:35;101354.88;;;2.26;60.33
29569;BME280;16501;51.462;14.346;2023-04-04T07:50:01;101376.69;;;2.45;58.54
29569;BME280;16501;51.462;14.346;2023-04-04T07:52:26;101366.06;;;2.55;56.50
29569;BME280;16501;51.462;14.346;2023-04-04T07:54:51;101365.94;;;2.26;54.73
29569;BME280;16501;51.462;14.346;2023-04-04T07:57:17;101377.72;;;2.08;55.71
29569;BME280;16501;51.462;14.346;2023-04-04T07:59:42;101336.41;;;1.67;54.30
29569;BME280;16501;51.462;14.346;2023-04-04T08:02:08;101343.38;;;1.47;55.79
29569;BME280;16501;51.462;14.346;2023-04-04T08:04:34;101378.22;;;1.59;53.89
29569;BME280;16501;51.462;14.346;2023-04-04T08:06:59;101348.66;;;1.18;55.24
29569;BME280;16501;51.462;14.346;2023-04-04T08:09:24;101352.88;;;1.53;55.10
29569;BME280;16501;51.462;14.346;2023-04-04T08:11:50;101351.78;;;1.68;55.44
29569;BME280;16501;51.462;14.346;2023-04-04T08:14:15;101374.56;;;2.14;55.96
29569;BME280;16501;51.462;14.346;2023-04-04T08:16:40;101365.19;;;2.36;53.63
29569;BME280;16501;51.462;14.346;2023-04-04T08:19:06;101362.47;;;2.51;53.21
29569;BME280;16501;51.462;14.346;2023-04-04T08:21:32;101365.28;;;2.61;54.46
29569;BME280;16501;51.462;14.346;2023-04-04T08:23:57;101339.19;;;2.66;54.49
29569;BME280;16501;51.462;14.346;2023-04-04T08:26:23;101362.56;;;2.87;52.24
29569;BME280;16501;51.462;14.346;2023-04-04T08:28:48;101360.97;;;2.78;50.94
29569;BME280;16501;51.462;14.346;2023-04-04T08:31:14;101356.53;;;2.49;51.41
29569;BME280;16501;51.462;14.346;2023-04-04T08:33:39;101370.00;;;2.54;51.49
29569;BME280;16501;51.462;14.346;2023-04-04T08:36:05;101353.84;;;2.70;50.96
29569;BME280;16501;51.462;14.346;2023-04-04T08:38:30;101349.56;;;2.98;52.66
29569;BME280;16501;51.462;14.346;2023-04-04T08:40:56;101351.94;;;3.10;51.15
29569;BME280;16501;51.462;14.346;2023-04-04T08:43:23;101366.97;;;3.02;50.34
29569;BME280;16501;51.462;14.346;2023-04-04T08:45:49;101350.72;;;3.04;51.91
29569;BME280;16501;51.462;14.346;2023-04-04T08:48:15;101366.13;;;2.91;52.41
29569;BME280;16501;51.462;14.346;2023-04-04T08:50:42;101338.88;;;3.04;50.76
29569;BME280;16501;51.462;14.346;2023-04-04T08:53:09;101336.09;;;2.93;51.82
29569;BME280;16501;51.462;14.346;2023-04-04T08:55:35;101327.78;;;3.00;50.26
29569;BME280;16501;51.462;14.346;2023-04-04T08:58:00;101344.81;;;3.38;51.59
29569;BME280;16501;51.462;14.346;2023-04-04T09:00:26;101345.59;;;3.49;49.60
29569;BME280;16501;51.462;14.346;2023-04-04T09:02:55;101353.47;;;3.72;50.05
29569;BME280;16501;51.462;14.346;2023-04-04T09:05:22;101308.38;;;3.43;47.70
29569;BME280;16501;51.462;14.346;2023-04-04T09:07:50;101325.72;;;3.72;48.35
29569;BME280;16501;51.462;14.346;2023-04-04T09:10:15;101316.97;;;3.95;48.13
29569;BME280;16501;51.462;14.346;2023-04-04T09:12:43;101317.41;;;3.87;49.00
29569;BME280;16501;51.462;14.346;2023-04-04T09:15:10;101327.66;;;3.93;48.94
29569;BME280;16501;51.462;14.346;2023-04-04T09:17:35;101337.09;;;4.21;51.01
29569;BME280;16501;51.462;14.346;2023-04-04T09:20:02;101292.31;;;4.12;48.80
29569;BME280;16501;51.462;14.346;2023-04-04T09:22:30;101315.16;;;4.45;48.99
29569;BME280;16501;51.462;14.346;2023-04-04T09:24:56;101332.09;;;4.65;46.86
29569;BME280;16501;51.462;14.346;2023-04-04T09:27:22;101334.44;;;4.73;47.05
29569;BME280;16501;51.462;14.346;2023-04-04T09:29:47;101297.66;;;4.55;46.59
29569;BME280;16501;51.462;14.346;2023-04-04T09:32:13;101347.72;;;5.07;48.71
29569;BME280;16501;51.462;14.346;2023-04-04T09:34:40;101352.22;;;4.87;45.33
29569;BME280;16501;51.462;14.346;2023-04-04T09:37:06;101325.72;;;4.71;44.89
29569;BME280;16501;51.462;14.346;2023-04-04T09:39:32;101349.53;;;4.72;43.54
29569;BME280;16501;51.462;14.346;2023-04-04T09:41:59;101323.06;;;4.50;45.59
29569;BME280;16501;51.462;14.346;2023-04-04T09:44:25;101342.31;;;4.82;48.32
29569;BME280;16501;51.462;14.346;2023-04-04T09:46:50;101323.69;;;4.83;47.30
29569;BME280;16501;51.462;14.346;2023-04-04T09:49:19;101337.38;;;5.08;47.26
29569;BME280;16501;51.462;14.346;2023-04-04T09:51:50;101346.13;;;5.06;47.50
29569;BME280;16501;51.462;14.346;2023-04-04T09:54:20;101332.59;;;5.16;45.56
29569;BME280;16501;51.462;14.346;2023-04-04T09:56:47;101348.09;;;5.09;47.04
29569;BME280;16501;51.462;14.346;2023-04-04T09:59:13;101332.50;;;4.67;44.91
29569;BME280;16501;51.462;14.346;2023-04-04T10:01:38;101334.16;;;4.57;47.12
29569;BME280;16501;51.462;14.346;2023-04-04T10:04:04;101335.09;;;4.25;47.04
29569;BME280;16501;51.462;14.346;2023-04-04T10:06:30;101344.19;;;4.29;45.70
29569;BME280;16501;51.462;14.346;2023-04-04T10:08:56;101334.34;;;4.14;46.15
29569;BME280;16501;51.462;14.346;2023-04-04T10:11:31;101345.25;;;4.61;44.55
29569;BME280;16501;51.462;14.346;2023-04-04T10:13:58;101335.91;;;4.93;44.83
29569;BME280;16501;51.462;14.346;2023-04-04T10:16:24;101322.72;;;5.07;43.97
29569;BME280;16501;51.462;14.346;2023-04-04T10:18:49;101284.72;;;4.90;41.67
29569;BME280;16501;51.462;14.346;2023-04-04T10:21:16;101321.75;;;5.28;43.97
29569;BME280;16501;51.462;14.346;2023-04-04T10:23:44;101332.31;;;5.44;44.52
29569;BME280;16501;51.462;14.346;2023-04-04T10:26:10;101315.03;;;5.26;45.02
29569;BME280;16501;51.462;14.346;2023-04-04T10:28:36;101327.19;;;5.39;44.69
29569;BME280;16501;51.462;14.346;2023-04-04T10:31:10;101325.25;;;5.36;44.01
29569;BME280;16501;51.462;14.346;2023-04-04T10:33:45;101325.91;;;5.06;43.62
29569;BME280;16501;51.462;14.346;2023-04-04T10:36:30;101295.28;;;4.53;44.97
29569;BME280;16501;51.462;14.346;2023-04-04T10:39:23;101310.50;;;5.39;47.00
29569;BME280;16501;51.462;14.346;2023-04-04T10:41:51;101297.53;;;5.67;45.77
29569;BME280;16501;51.462;14.346;2023-04-04T10:44:23;101295.00;;;5.80;46.07
29569;BME280;16501;51.462;14.346;2023-04-04T10:46:53;101315.03;;;5.64;46.46
29569;BME280;16501;51.462;14.346;2023-04-04T10:49:21;101302.63;;;5.34;42.96
29569;BME280;16501;51.462;14.346;2023-04-04T10:51:47;101300.34;;;5.22;40.58
29569;BME280;16501;51.462;14.346;2023-04-04T10:54:13;101285.97;;;5.31;44.35
29569;BME280;16501;51.462;14.346;2023-04-04T10:56:39;101283.41;;;5.51;46.12
29569;BME280;16501;51.462;14.346;2023-04-04T10:59:14;101290.53;;;5.52;42.28
29569;BME280;16501;51.462;14.346;2023-04-04T11:01:55;101283.78;;;5.53;43.28
29569;BME280;16501;51.462;14.346;2023-04-04T11:04:27;101305.66;;;5.85;45.25
29569;BME280;16501;51.462;14.346;2023-04-04T11:07:17;101298.81;;;5.93;42.62
29569;BME280;16501;51.462;14.346;2023-04-04T11:09:52;101258.50;;;4.91;42.24
29569;BME280;16501;51.462;14.346;2023-04-04T11:12:41;101286.19;;;5.05;44.36
29569;BME280;16501;51.462;14.346;2023-04-04T11:15:09;101281.13;;;5.38;43.79
29569;BME280;16501;51.462;14.346;2023-04-04T11:20:27;101281.13;;;5.76;43.47
29569;BME280;16501;51.462;14.346;2023-04-04T11:23:24;101255.91;;;5.91;42.55
29569;BME280;16501;51.462;14.346;2023-04-04T11:25:53;101265.53;;;6.20;45.49
29569;BME280;16501;51.462;14.346;2023-04-04T11:34:11;101250.31;;;5.94;41.10
29569;BME280;16501;51.462;14.346;2023-04-04T11:41:54;101256.06;;;5.76;43.71
29569;BME280;16501;51.462;14.346;2023-04-04T11:44:22;101241.28;;;5.10;42.67
29569;BME280;16501;51.462;14.346;2023-04-04T11:46:54;101244.59;;;4.95;42.94
29569;BME280;16501;51.462;14.346;2023-04-04T11:49:24;101243.97;;;5.18;43.19
29569;BME280;16501;51.462;14.346;2023-04-04T11:51:49;101242.03;;;5.53;43.67
29569;BME280;16501;51.462;14.346;2023-04-04T11:54:16;101239.69;;;5.85;40.69
29569;BME280;16501;51.462;14.346;2023-04-04T11:56:42;101219.16;;;5.72;38.38
29569;BME280;16501;51.462;14.346;2023-04-04T11:59:11;101217.63;;;6.02;40.25
29569;BME280;16501;51.462;14.346;2023-04-04T12:01:38;101211.13;;;6.12;41.43
29569;BME280;16501;51.462;14.346;2023-04-04T12:04:04;101210.72;;;6.41;41.91
29569;BME280;16501;51.462;14.346;2023-04-04T12:06:30;101223.63;;;6.28;38.89
29569;BME280;16501;51.462;14.346;2023-04-04T12:09:01;101235.63;;;6.52;40.65
29569;BME280;16501;51.462;14.346;2023-04-04T12:11:29;101234.28;;;6.60;39.73
29569;BME280;16501;51.462;14.346;2023-04-04T12:13:55;101226.84;;;6.53;38.76
29569;BME280;16501;51.462;14.346;2023-04-04T12:16:21;101215.97;;;6.08;39.44
29569;BME280;16501;51.462;14.346;2023-04-04T12:18:48;101228.03;;;5.94;39.21
29569;BME280;16501;51.462;14.346;2023-04-04T12:21:13;101203.19;;;5.45;37.32
29569;BME280;16501;51.462;14.346;2023-04-04T12:23:39;101207.97;;;5.41;38.71
29569;BME280;16501;51.462;14.346;2023-04-04T12:26:06;101216.19;;;5.18;39.08
29569;BME280;16501;51.462;14.346;2023-04-04T12:28:34;101181.63;;;5.15;38.88
29569;BME280;16501;51.462;14.346;2023-04-04T12:31:02;101195.28;;;5.75;41.24
29569;BME280;16501;51.462;14.346;2023-04-04T12:33:31;101213.69;;;5.99;41.10
29569;BME280;16501;51.462;14.346;2023-04-04T12:36:03;101207.78;;;5.90;39.97
29569;BME280;16501;51.462;14.346;2023-04-04T12:38:29;101203.41;;;5.93;40.98
29569;BME280;16501;51.462;14.346;2023-04-04T12:40:55;101203.00;;;5.94;40.04
29569;BME280;16501;51.462;14.346;2023-04-04T12:43:20;101212.44;;;5.70;39.92
29569;BME280;16501;51.462;14.346;2023-04-04T12:45:49;101197.53;;;5.53;39.28
29569;BME280;16501;51.462;14.346;2023-04-04T12:48:15;101198.03;;;6.09;39.96
29569;BME280;16501;51.462;14.346;2023-04-04T12:50:56;101209.84;;;6.44;39.52
29569;BME280;16501;51.462;14.346;2023-04-04T12:53:26;101172.06;;;5.85;39.54
29569;BME280;16501;51.462;14.346;2023-04-04T12:55:52;101209.13;;;6.13;39.41
29569;BME280;16501;51.462;14.346;2023-04-04T12:58:21;101191.38;;;6.03;39.02
29569;BME280;16501;51.462;14.346;2023-04-04T13:00:49;101191.50;;;5.92;39.83
29569;BME280;16501;51.462;14.346;2023-04-04T13:03:17;101208.66;;;6.45;39.92
29569;BME280;16501;51.462;14.346;2023-04-04T13:05:46;101170.50;;;6.42;37.87